sensor_id;sensor_type;location;lat;lon;timestamp;P1;durP1;ratioP1;P2;durP2;ratioP2
57718;SDS011;43561;50.090;18.522;2023-02-08T00:05:23;81.18;;;43.30;;
57718;SDS011;43561;50.090;18.522;2023-02-08T00:15:25;52.50;;;35.40;;
57718;SDS011;43561;50.090;18.522;2023-02-08T00:25:27;53.13;;;42.05;;
57718;SDS011;43561;50.090;18.522;2023-02-08T00:35:30;73.55;;;37.13;;
57718;SDS011;43561;50.090;18.522;2023-02-08T00:45:32;87.53;;;40.90;;
57718;SDS011;43561;50.090;18.522;2023-02-08T00:55:37;94.28;;;45.08;;
57718;SDS011;43561;50.090;18.522;2023-02-08T01:05:39;92.85;;;52.60;;
57718;SDS011;43561;50.090;18.522;2023-02-08T01:15:41;67.50;;;38.17;;
57718;SDS011;43561;50.090;18.522;2023-02-08T01:25:43;64.55;;;35.45;;
57718;SDS011;43561;50.090;18.522;2023-02-08T01:35:45;54.05;;;40.90;;
57718;SDS011;43561;50.090;18.522;2023-02-08T01:56:54;48.95;;;34.40;;
57718;SDS011;43561;50.090;18.522;2023-02-08T02:06:57;88.18;;;44.13;;
57718;SDS011;43561;50.090;18.522;2023-02-08T02:17:00;61.33;;;29.67;;
57718;SDS011;43561;50.090;18.522;2023-02-08T02:58:03;36.03;;;28.35;;
57718;SDS011;43561;50.090;18.522;2023-02-08T03:49:48;31.00;;;26.38;;
57718;SDS011;43561;50.090;18.522;2023-02-08T03:59:56;32.28;;;24.25;;
57718;SDS011;43561;50.090;18.522;2023-02-08T04:10:13;60.67;;;38.78;;
57718;SDS011;43561;50.090;18.522;2023-02-08T04:20:15;40.78;;;27.58;;
57718;SDS011;43561;50.090;18.522;2023-02-08T04:30:17;74.95;;;39.47;;
57718;SDS011;43561;50.090;18.522;2023-02-08T04:40:19;56.10;;;31.40;;
57718;SDS011;43561;50.090;18.522;2023-02-08T04:50:21;100.72;;;43.15;;
57718;SDS011;43561;50.090;18.522;2023-02-08T05:00:23;48.08;;;34.25;;
57718;SDS011;43561;50.090;18.522;2023-02-08T05:10:25;49.65;;;27.42;;
57718;SDS011;43561;50.090;18.522;2023-02-08T05:20:33;52.75;;;32.30;;
57718;SDS011;43561;50.090;18.522;2023-02-08T05:30:36;66.90;;;42.30;;
57718;SDS011;43561;50.090;18.522;2023-02-08T05:40:39;77.40;;;41.28;;
57718;SDS011;43561;50.090;18.522;2023-02-08T05:50:41;50.67;;;37.35;;
57718;SDS011;43561;50.090;18.522;2023-02-08T06:00:43;57.90;;;38.65;;
57718;SDS011;43561;50.090;18.522;2023-02-08T06:10:47;94.90;;;52.22;;
57718;SDS011;43561;50.090;18.522;2023-02-08T06:20:52;68.60;;;48.22;;
57718;SDS011;43561;50.090;18.522;2023-02-08T06:30:55;72.60;;;43.00;;
57718;SDS011;43561;50.090;18.522;2023-02-08T06:40:57;92.30;;;51.55;;
57718;SDS011;43561;50.090;18.522;2023-02-08T06:50:59;78.35;;;43.05;;
57718;SDS011;43561;50.090;18.522;2023-02-08T07:01:01;63.80;;;39.90;;
57718;SDS011;43561;50.090;18.522;2023-02-08T07:11:09;74.47;;;37.78;;
57718;SDS011;43561;50.090;18.522;2023-02-08T07:21:13;100.82;;;48.13;;
57718;SDS011;43561;50.090;18.522;2023-02-08T07:31:15;64.70;;;41.13;;
57718;SDS011;43561;50.090;18.522;2023-02-08T07:41:18;106.20;;;48.50;;
57718;SDS011;43561;50.090;18.522;2023-02-08T07:51:20;63.97;;;34.40;;
57718;SDS011;43561;50.090;18.522;2023-02-08T08:01:21;60.22;;;31.60;;
57718;SDS011;43561;50.090;18.522;2023-02-08T08:11:24;51.72;;;21.48;;
57718;SDS011;43561;50.090;18.522;2023-02-08T08:21:25;34.78;;;22.50;;
57718;SDS011;43561;50.090;18.522;2023-02-08T08:31:28;34.05;;;23.20;;
57718;SDS011;43561;50.090;18.522;2023-02-08T08:41:30;43.60;;;24.15;;
57718;SDS011;43561;50.090;18.522;2023-02-08T08:51:33;41.58;;;22.70;;
57718;SDS011;43561;50.090;18.522;2023-02-08T09:01:35;42.70;;;25.50;;
57718;SDS011;43561;50.090;18.522;2023-02-08T09:11:37;55.67;;;30.05;;
57718;SDS011;43561;50.090;18.522;2023-02-08T09:21:39;48.45;;;33.45;;
57718;SDS011;43561;50.090;18.522;2023-02-08T09:31:41;43.28;;;26.38;;
57718;SDS011;43561;50.090;18.522;2023-02-08T09:51:55;53.50;;;26.65;;
57718;SDS011;43561;50.090;18.522;2023-02-08T10:12:33;44.53;;;17.02;;
57718;SDS011;43561;50.090;18.522;2023-02-08T10:22:51;30.63;;;21.02;;
57718;SDS011;43561;50.090;18.522;2023-02-08T10:33:13;25.97;;;16.43;;
57718;SDS011;43561;50.090;18.522;2023-02-08T10:53:35;42.08;;;23.05;;
57718;SDS011;43561;50.090;18.522;2023-02-08T11:03:36;26.25;;;13.38;;
57718;SDS011;43561;50.090;18.522;2023-02-08T11:13:40;27.33;;;13.07;;
57718;SDS011;43561;50.090;18.522;2023-02-08T11:23:47;34.78;;;17.00;;
57718;SDS011;43561;50.090;18.522;2023-02-08T11:33:58;33.35;;;17.52;;
57718;SDS011;43561;50.090;18.522;2023-02-08T11:44:05;24.15;;;14.13;;
57718;SDS011;43561;50.090;18.522;2023-02-08T11:54:09;32.40;;;17.92;;
57718;SDS011;43561;50.090;18.522;2023-02-08T12:04:34;27.15;;;12.90;;
57718;SDS011;43561;50.090;18.522;2023-02-08T12:35:21;21.60;;;9.83;;
57718;SDS011;43561;50.090;18.522;2023-02-08T12:56:24;25.15;;;12.55;;
57718;SDS011;43561;50.090;18.522;2023-02-08T13:06:49;18.20;;;11.27;;
57718;SDS011;43561;50.090;18.522;2023-02-08T13:17:13;34.15;;;19.23;;
57718;SDS011;43561;50.090;18.522;2023-02-08T13:27:22;19.48;;;8.57;;
57718;SDS011;43561;50.090;18.522;2023-02-08T13:37:25;17.58;;;8.88;;
57718;SDS011;43561;50.090;18.522;2023-02-08T13:47:33;24.83;;;10.25;;
57718;SDS011;43561;50.090;18.522;2023-02-08T13:57:49;25.30;;;12.07;;
57718;SDS011;43561;50.090;18.522;2023-02-08T14:07:52;22.05;;;12.52;;
57718;SDS011;43561;50.090;18.522;2023-02-08T14:17:59;21.25;;;11.70;;
57718;SDS011;43561;50.090;18.522;2023-02-08T14:28:02;19.80;;;13.70;;
57718;SDS011;43561;50.090;18.522;2023-02-08T14:48:32;20.23;;;8.50;;
57718;SDS011;43561;50.090;18.522;2023-02-08T14:58:44;29.95;;;14.60;;
57718;SDS011;43561;50.090;18.522;2023-02-08T15:08:50;30.70;;;14.45;;
57718;SDS011;43561;50.090;18.522;2023-02-08T15:18:54;30.50;;;18.38;;
57718;SDS011;43561;50.090;18.522;2023-02-08T15:28:56;32.63;;;14.35;;
57718;SDS011;43561;50.090;18.522;2023-02-08T15:39:01;31.58;;;19.38;;
57718;SDS011;43561;50.090;18.522;2023-02-08T15:49:25;38.60;;;19.80;;
57718;SDS011;43561;50.090;18.522;2023-02-08T15:59:32;40.92;;;22.17;;
57718;SDS011;43561;50.090;18.522;2023-02-08T16:09:38;55.65;;;27.48;;
57718;SDS011;43561;50.090;18.522;2023-02-08T16:19:40;66.68;;;33.40;;
57718;SDS011;43561;50.090;18.522;2023-02-08T16:29:51;66.82;;;30.50;;
57718;SDS011;43561;50.090;18.522;2023-02-08T16:39:58;64.88;;;37.88;;
57718;SDS011;43561;50.090;18.522;2023-02-08T16:50:05;46.78;;;28.92;;
57718;SDS011;43561;50.090;18.522;2023-02-08T17:00:16;39.72;;;22.55;;
57718;SDS011;43561;50.090;18.522;2023-02-08T17:10:30;43.53;;;24.90;;
57718;SDS011;43561;50.090;18.522;2023-02-08T17:20:34;55.50;;;28.38;;
57718;SDS011;43561;50.090;18.522;2023-02-08T17:30:37;73.18;;;34.67;;
57718;SDS011;43561;50.090;18.522;2023-02-08T17:40:41;44.72;;;25.13;;
57718;SDS011;43561;50.090;18.522;2023-02-08T17:50:44;55.05;;;25.77;;
57718;SDS011;43561;50.090;18.522;2023-02-08T18:00:47;49.47;;;25.80;;
57718;SDS011;43561;50.090;18.522;2023-02-08T18:10:49;31.05;;;19.95;;
57718;SDS011;43561;50.090;18.522;2023-02-08T18:20:51;25.27;;;15.80;;
57718;SDS011;43561;50.090;18.522;2023-02-08T18:30:59;43.90;;;20.70;;
57718;SDS011;43561;50.090;18.522;2023-02-08T18:41:05;39.40;;;14.13;;
57718;SDS011;43561;50.090;18.522;2023-02-08T18:51:14;49.35;;;25.08;;
57718;SDS011;43561;50.090;18.522;2023-02-08T19:01:21;56.78;;;29.42;;
57718;SDS011;43561;50.090;18.522;2023-02-08T19:11:25;84.50;;;35.45;;
57718;SDS011;43561;50.090;18.522;2023-02-08T19:21:32;55.60;;;27.03;;
57718;SDS011;43561;50.090;18.522;2023-02-08T19:31:36;31.98;;;27.38;;
57718;SDS011;43561;50.090;18.522;2023-02-08T19:41:38;77.20;;;33.20;;
57718;SDS011;43561;50.090;18.522;2023-02-08T19:51:41;55.33;;;29.77;;
57718;SDS011;43561;50.090;18.522;2023-02-08T20:01:43;62.08;;;29.02;;
57718;SDS011;43561;50.090;18.522;2023-02-08T20:11:44;61.70;;;29.92;;
57718;SDS011;43561;50.090;18.522;2023-02-08T20:22:02;41.75;;;30.23;;
57718;SDS011;43561;50.090;18.522;2023-02-08T20:32:04;40.40;;;27.30;;
57718;SDS011;43561;50.090;18.522;2023-02-08T20:42:07;72.75;;;32.33;;
57718;SDS011;43561;50.090;18.522;2023-02-08T20:52:09;46.85;;;30.10;;
57718;SDS011;43561;50.090;18.522;2023-02-08T21:02:30;85.18;;;40.95;;
57718;SDS011;43561;50.090;18.522;2023-02-08T21:12:32;58.83;;;34.63;;
57718;SDS011;43561;50.090;18.522;2023-02-08T21:22:34;92.82;;;52.63;;
57718;SDS011;43561;50.090;18.522;2023-02-08T21:32:35;166.35;;;82.80;;
57718;SDS011;43561;50.090;18.522;2023-02-08T21:42:37;138.98;;;80.38;;
57718;SDS011;43561;50.090;18.522;2023-02-08T21:52:39;140.35;;;63.45;;
57718;SDS011;43561;50.090;18.522;2023-02-08T22:02:41;127.30;;;55.83;;
57718;SDS011;43561;50.090;18.522;2023-02-08T22:12:43;84.72;;;44.08;;
57718;SDS011;43561;50.090;18.522;2023-02-08T22:22:45;79.90;;;49.55;;
57718;SDS011;43561;50.090;18.522;2023-02-08T22:32:47;91.47;;;50.78;;
57718;SDS011;43561;50.090;18.522;2023-02-08T22:42:49;67.45;;;49.35;;
57718;SDS011;43561;50.090;18.522;2023-02-08T22:52:51;118.55;;;58.60;;
57718;SDS011;43561;50.090;18.522;2023-02-08T23:02:53;78.45;;;54.50;;
57718;SDS011;43561;50.090;18.522;2023-02-08T23:12:55;135.38;;;56.40;;
57718;SDS011;43561;50.090;18.522;2023-02-08T23:22:57;84.43;;;61.35;;
57718;SDS011;43561;50.090;18.522;2023-02-08T23:32:59;140.35;;;71.20;;
57718;SDS011;43561;50.090;18.522;2023-02-08T23:43:01;86.57;;;59.28;;
57718;SDS011;43561;50.090;18.522;2023-02-08T23:53:03;107.75;;;82.55;;
